createdAt,value
2022-12-31T00:02:25.332Z,82.81
2022-12-31T00:04:51.864Z,82.49
2022-12-31T00:07:19.337Z,82.94
2022-12-31T00:09:48.621Z,83.04
2022-12-31T00:12:16.083Z,83.35
2022-12-31T00:14:43.240Z,83.69
2022-12-31T00:17:09.772Z,83.39
2022-12-31T00:19:36.348Z,83.52
2022-12-31T00:22:02.805Z,82.81
2022-12-31T00:24:29.225Z,83.71
2022-12-31T00:26:55.695Z,83.90
2022-12-31T00:29:22.160Z,84.00
2022-12-31T00:31:48.564Z,83.88
2022-12-31T00:34:15.002Z,84.49
2022-12-31T00:36:41.454Z,84.07
2022-12-31T00:39:07.872Z,84.36
2022-12-31T00:41:34.291Z,84.14
2022-12-31T00:44:00.719Z,83.80
2022-12-31T00:46:27.264Z,84.09
2022-12-31T00:48:53.729Z,83.58
2022-12-31T00:51:20.136Z,82.80
2022-12-31T00:53:46.570Z,82.70
2022-12-31T00:56:13.109Z,82.76
2022-12-31T00:58:39.552Z,81.96
2022-12-31T01:01:06.080Z,83.22
2022-12-31T01:03:32.622Z,83.00
2022-12-31T01:05:59.066Z,82.60
2022-12-31T01:08:25.569Z,82.65
2022-12-31T01:10:52.043Z,82.10
2022-12-31T01:13:18.489Z,81.82
2022-12-31T01:15:44.993Z,81.18
2022-12-31T01:18:11.484Z,82.16
2022-12-31T01:20:38.460Z,81.57
2022-12-31T01:23:04.894Z,82.04
2022-12-31T01:25:31.331Z,81.77
2022-12-31T01:27:57.822Z,81.57
2022-12-31T01:30:24.271Z,80.85
2022-12-31T01:32:50.720Z,81.69
2022-12-31T01:35:17.182Z,81.87
2022-12-31T01:37:43.626Z,79.96
2022-12-31T01:40:10.143Z,81.26
2022-12-31T01:42:36.572Z,79.97
2022-12-31T01:45:02.990Z,80.80
2022-12-31T01:47:29.407Z,80.87
2022-12-31T01:49:55.825Z,80.96
2022-12-31T01:52:22.349Z,80.69
2022-12-31T01:54:48.794Z,81.36
2022-12-31T01:57:15.220Z,80.21
2022-12-31T01:59:41.656Z,79.26
2022-12-31T02:02:08.130Z,80.64
2022-12-31T02:04:34.613Z,80.56
2022-12-31T02:07:01.037Z,80.13
2022-12-31T02:09:27.477Z,80.43
2022-12-31T02:11:53.901Z,80.59
2022-12-31T02:14:20.310Z,80.86
2022-12-31T02:16:46.748Z,80.62
2022-12-31T02:19:13.174Z,80.28
2022-12-31T02:21:39.631Z,80.89
2022-12-31T02:24:06.198Z,80.72
2022-12-31T02:26:35.016Z,80.96
2022-12-31T02:29:01.427Z,80.82
2022-12-31T02:31:29.271Z,80.80
2022-12-31T02:33:55.755Z,81.58
2022-12-31T02:36:22.489Z,81.36
2022-12-31T02:38:48.914Z,81.40
2022-12-31T02:41:15.347Z,81.78
2022-12-31T02:43:41.848Z,80.31
2022-12-31T02:46:09.354Z,81.43
2022-12-31T02:48:36.989Z,81.74
2022-12-31T02:51:05.808Z,81.17
2022-12-31T02:53:32.241Z,80.70
2022-12-31T02:55:59.388Z,80.95
2022-12-31T02:58:25.878Z,80.13
2022-12-31T03:00:55.792Z,80.54
2022-12-31T03:03:22.745Z,80.52
2022-12-31T03:05:49.481Z,79.63
2022-12-31T03:08:18.004Z,79.35
2022-12-31T03:10:45.509Z,79.21
2022-12-31T03:13:11.927Z,78.82
2022-12-31T03:15:39.084Z,79.05
2022-12-31T03:18:05.729Z,80.50
2022-12-31T03:20:34.687Z,79.12
2022-12-31T03:23:03.900Z,79.23
2022-12-31T03:25:30.551Z,78.63
2022-12-31T03:27:58.030Z,78.41
2022-12-31T03:30:24.469Z,78.84
2022-12-31T03:38:22.685Z,79.16
2022-12-31T03:40:50.369Z,78.90
2022-12-31T03:43:23.688Z,79.36
2022-12-31T03:45:52.708Z,78.17
2022-12-31T03:48:42.624Z,79.22
2022-12-31T03:51:18.687Z,78.30
2022-12-31T03:53:49.329Z,78.48
2022-12-31T03:56:15.960Z,79.05
2022-12-31T03:58:46.737Z,77.64
2022-12-31T04:01:13.266Z,79.24
2022-12-31T04:03:40.002Z,78.47
2022-12-31T04:06:07.552Z,78.49
2022-12-31T04:08:34.195Z,78.42
2022-12-31T04:11:09.690Z,78.60
2022-12-31T04:13:36.714Z,78.79
2022-12-31T04:21:23.665Z,79.24
2022-12-31T04:23:50.135Z,79.11
2022-12-31T04:26:16.606Z,78.60
2022-12-31T04:28:47.269Z,79.66
2022-12-31T04:31:13.707Z,80.22
2022-12-31T04:36:26.662Z,80.17
2022-12-31T04:38:53.310Z,80.26
2022-12-31T04:41:29.810Z,80.28
2022-12-31T04:43:56.229Z,79.64
2022-12-31T04:46:26.593Z,79.97
2022-12-31T04:48:53.047Z,80.63
2022-12-31T04:51:24.127Z,80.76
2022-12-31T04:53:51.302Z,80.84
2022-12-31T04:56:18.903Z,80.03
2022-12-31T04:58:45.372Z,79.33
2022-12-31T05:01:12.816Z,80.29
2022-12-31T05:03:40.085Z,80.51
2022-12-31T05:06:20.270Z,81.08
2022-12-31T05:08:50.686Z,80.43
2022-12-31T05:11:18.782Z,79.29
2022-12-31T05:13:58.582Z,80.82
2022-12-31T05:16:26.033Z,80.60
2022-12-31T05:19:00.329Z,79.87
2022-12-31T05:21:27.306Z,80.09
2022-12-31T05:23:54.228Z,79.94
2022-12-31T05:26:21.126Z,78.92
2022-12-31T05:28:52.726Z,79.61
2022-12-31T05:31:21.683Z,79.52
2022-12-31T05:33:49.613Z,80.48
2022-12-31T05:36:16.816Z,80.22
2022-12-31T05:41:34.194Z,79.69
2022-12-31T05:44:00.595Z,79.41
2022-12-31T05:46:27.274Z,80.69
2022-12-31T05:49:03.580Z,79.65
2022-12-31T05:51:31.326Z,79.40
2022-12-31T05:54:03.522Z,78.76
2022-12-31T05:56:30.156Z,79.68
2022-12-31T05:58:59.288Z,78.60
2022-12-31T06:01:25.858Z,78.76
2022-12-31T06:03:52.360Z,79.68
2022-12-31T06:06:18.786Z,78.87
2022-12-31T06:08:46.215Z,78.62
2022-12-31T06:11:12.887Z,78.29
2022-12-31T06:13:42.992Z,78.31
2022-12-31T06:16:11.732Z,77.04
2022-12-31T06:18:40.146Z,78.26
2022-12-31T06:21:06.795Z,78.21
2022-12-31T06:23:37.205Z,78.70
2022-12-31T06:26:03.641Z,78.42
2022-12-31T06:28:30.054Z,76.95
2022-12-31T06:33:39.981Z,78.03
2022-12-31T06:36:10.485Z,77.41
2022-12-31T06:38:37.336Z,79.08
2022-12-31T06:41:04.328Z,78.48
2022-12-31T06:43:31.030Z,78.95
2022-12-31T06:45:58.130Z,78.73
2022-12-31T06:48:24.604Z,79.41
2022-12-31T06:50:51.047Z,78.63
2022-12-31T06:53:18.072Z,79.34
2022-12-31T06:55:44.760Z,79.04
2022-12-31T06:58:11.224Z,79.20
2022-12-31T07:00:39.709Z,79.80
2022-12-31T07:03:06.377Z,78.96
2022-12-31T07:05:32.832Z,79.14
2022-12-31T07:08:00.302Z,78.79
2022-12-31T07:10:29.835Z,79.97
2022-12-31T07:12:56.879Z,80.10
2022-12-31T07:15:23.511Z,79.57
2022-12-31T07:17:50.948Z,79.58
2022-12-31T07:20:17.393Z,79.81
2022-12-31T07:22:43.862Z,79.23
2022-12-31T07:25:10.308Z,79.21
2022-12-31T07:27:36.715Z,78.96
2022-12-31T07:30:05.337Z,79.59
2022-12-31T07:32:31.912Z,80.33
2022-12-31T07:34:58.325Z,78.99
2022-12-31T07:37:24.859Z,79.59
2022-12-31T07:39:51.305Z,79.96
2022-12-31T07:42:17.752Z,79.00
2022-12-31T07:44:44.166Z,79.47
2022-12-31T07:47:10.601Z,79.61
2022-12-31T07:49:37.028Z,79.37
2022-12-31T07:52:03.501Z,79.97
2022-12-31T07:54:29.964Z,79.55
2022-12-31T07:56:56.368Z,79.82
2022-12-31T07:59:24.634Z,79.72
2022-12-31T08:01:51.345Z,79.39
2022-12-31T08:04:17.950Z,78.61
2022-12-31T08:06:44.384Z,79.17
2022-12-31T08:09:10.846Z,78.98
2022-12-31T08:11:37.272Z,79.69
2022-12-31T08:14:03.711Z,78.83
2022-12-31T08:16:30.142Z,78.53
2022-12-31T08:18:56.637Z,77.95
2022-12-31T08:21:23.059Z,80.12
2022-12-31T08:23:49.482Z,79.77
2022-12-31T08:26:15.889Z,80.21
2022-12-31T08:28:42.382Z,79.01
2022-12-31T08:31:08.852Z,79.17
2022-12-31T08:33:35.355Z,78.07
2022-12-31T08:36:01.799Z,79.24
2022-12-31T08:38:28.254Z,78.07
2022-12-31T08:40:54.673Z,77.43
2022-12-31T08:43:21.082Z,78.78
2022-12-31T08:45:47.560Z,78.20
2022-12-31T08:48:14.004Z,77.18
2022-12-31T08:50:40.387Z,78.03
2022-12-31T08:53:06.845Z,77.67
2022-12-31T08:55:33.275Z,77.14
2022-12-31T08:57:59.673Z,78.50
2022-12-31T09:00:26.140Z,77.73
2022-12-31T09:02:52.574Z,76.88
2022-12-31T09:05:18.957Z,77.05
2022-12-31T09:07:45.356Z,76.52
2022-12-31T09:10:11.802Z,75.89
2022-12-31T09:12:38.281Z,76.58
2022-12-31T09:15:04.745Z,76.60
2022-12-31T09:17:32.996Z,76.61
2022-12-31T09:20:00.016Z,75.85
2022-12-31T09:22:30.205Z,76.39
2022-12-31T09:24:56.807Z,76.67
2022-12-31T09:27:27.412Z,74.47
2022-12-31T09:29:54.329Z,74.68
2022-12-31T09:32:20.855Z,76.54
2022-12-31T09:34:47.286Z,74.62
2022-12-31T09:37:13.700Z,75.13
2022-12-31T09:39:40.113Z,76.62
2022-12-31T09:42:06.578Z,74.06
2022-12-31T09:44:32.997Z,74.43
2022-12-31T09:46:59.444Z,77.03
2022-12-31T09:49:25.878Z,75.07
2022-12-31T09:51:52.300Z,75.43
2022-12-31T09:54:18.752Z,75.04
2022-12-31T09:56:45.173Z,74.67
2022-12-31T09:59:11.824Z,76.26
2022-12-31T10:01:38.324Z,77.36
2022-12-31T10:04:04.769Z,76.61
2022-12-31T10:06:31.207Z,74.99
2022-12-31T10:08:57.641Z,76.29
2022-12-31T10:11:24.089Z,75.21
2022-12-31T10:13:50.495Z,75.82
2022-12-31T10:16:17.054Z,73.81
2022-12-31T10:18:43.596Z,74.77
2022-12-31T10:21:10.055Z,75.30
2022-12-31T10:23:36.575Z,74.29
2022-12-31T10:26:03.138Z,74.82
2022-12-31T10:28:29.599Z,73.87
2022-12-31T10:30:56.057Z,74.42
2022-12-31T10:33:22.616Z,73.45
2022-12-31T10:35:49.034Z,72.31
2022-12-31T10:38:15.560Z,73.30
2022-12-31T10:40:41.989Z,70.83
2022-12-31T10:43:08.398Z,74.93
2022-12-31T10:45:34.838Z,70.87
2022-12-31T10:48:01.249Z,72.14
2022-12-31T10:50:27.641Z,71.17
2022-12-31T10:52:54.038Z,74.47
2022-12-31T10:55:22.291Z,74.35
2022-12-31T10:57:48.724Z,74.68
2022-12-31T11:00:15.439Z,72.35
2022-12-31T11:02:41.950Z,72.33
2022-12-31T11:05:19.537Z,72.68
2022-12-31T11:07:45.980Z,73.92
2022-12-31T11:10:12.375Z,72.44
2022-12-31T11:12:38.807Z,73.13
2022-12-31T11:15:05.188Z,72.87
2022-12-31T11:17:31.609Z,73.96
2022-12-31T11:19:58.007Z,72.61
2022-12-31T11:22:24.391Z,71.84
2022-12-31T11:24:50.805Z,71.51
2022-12-31T11:27:17.223Z,74.56
2022-12-31T11:29:43.671Z,72.66
2022-12-31T11:32:10.251Z,72.61
2022-12-31T11:34:36.684Z,73.82
2022-12-31T11:37:03.082Z,73.09
2022-12-31T11:39:31.394Z,71.48
2022-12-31T11:41:58.053Z,71.97
2022-12-31T11:44:24.460Z,70.81
2022-12-31T11:46:50.939Z,71.40
2022-12-31T11:49:17.356Z,70.79
2022-12-31T11:51:49.966Z,71.91
2022-12-31T11:54:16.978Z,71.11
2022-12-31T11:56:43.393Z,71.00
2022-12-31T11:59:13.151Z,72.55
2022-12-31T12:01:42.284Z,72.39
2022-12-31T12:04:09.423Z,71.32
2022-12-31T12:06:37.038Z,70.51
2022-12-31T12:09:03.493Z,71.97
2022-12-31T12:11:29.914Z,71.49
2022-12-31T12:13:56.351Z,71.91
2022-12-31T12:16:22.842Z,69.64
2022-12-31T12:18:49.302Z,73.56
2022-12-31T12:21:15.735Z,71.55
2022-12-31T12:23:42.151Z,72.08
2022-12-31T12:26:08.763Z,72.32
2022-12-31T12:28:39.621Z,71.78
2022-12-31T12:31:10.983Z,72.80
2022-12-31T12:33:38.554Z,68.46
2022-12-31T12:36:06.159Z,71.88
2022-12-31T12:38:33.745Z,73.44
2022-12-31T12:41:00.344Z,72.43
2022-12-31T12:43:26.956Z,73.22
2022-12-31T12:45:54.532Z,68.90
2022-12-31T12:48:21.112Z,70.32
2022-12-31T12:50:47.695Z,71.02
2022-12-31T12:53:14.336Z,70.78
2022-12-31T12:55:41.921Z,69.83
2022-12-31T12:58:09.926Z,67.97
2022-12-31T13:00:38.202Z,68.88
2022-12-31T13:03:04.759Z,72.33
2022-12-31T13:05:32.438Z,70.12
2022-12-31T13:07:59.067Z,69.34
2022-12-31T13:10:25.665Z,69.70
2022-12-31T13:15:38.929Z,72.70
2022-12-31T13:18:05.414Z,72.10
2022-12-31T13:20:32.150Z,72.51
2022-12-31T13:22:58.763Z,71.59
2022-12-31T13:25:25.568Z,68.96
2022-12-31T13:27:53.010Z,68.85
2022-12-31T13:30:19.683Z,67.51
2022-12-31T13:32:46.158Z,69.27
2022-12-31T13:35:12.922Z,72.86
2022-12-31T13:37:39.479Z,73.25
2022-12-31T13:40:06.280Z,71.41
2022-12-31T13:42:32.858Z,68.02
2022-12-31T13:44:59.484Z,72.50
2022-12-31T13:47:26.083Z,69.25
2022-12-31T13:49:52.533Z,71.84
2022-12-31T13:52:19.160Z,73.54
2022-12-31T13:54:46.207Z,69.40
2022-12-31T13:57:12.812Z,67.38
2022-12-31T13:59:40.523Z,69.44
2022-12-31T14:02:08.149Z,71.08
2022-12-31T14:04:35.643Z,71.53
2022-12-31T14:07:03.210Z,69.93
2022-12-31T14:09:30.125Z,70.02
2022-12-31T14:11:58.423Z,69.49
2022-12-31T14:14:25.047Z,70.51
2022-12-31T14:16:52.695Z,70.65
2022-12-31T14:19:20.244Z,71.28
2022-12-31T14:21:46.845Z,70.35
2022-12-31T14:24:13.300Z,71.76
2022-12-31T14:26:40.022Z,70.80
2022-12-31T14:29:07.659Z,69.31
2022-12-31T14:31:35.233Z,69.69
2022-12-31T14:34:02.807Z,70.09
2022-12-31T14:36:29.239Z,70.16
2022-12-31T14:38:56.003Z,71.11
2022-12-31T14:41:22.856Z,70.53
2022-12-31T14:43:50.202Z,72.06
2022-12-31T14:46:17.888Z,69.63
2022-12-31T14:48:45.384Z,70.54
2022-12-31T14:51:11.987Z,68.33
2022-12-31T14:53:39.018Z,69.97
2022-12-31T14:56:06.183Z,68.87
2022-12-31T14:58:33.802Z,70.32
2022-12-31T15:01:01.749Z,71.29
2022-12-31T15:03:30.155Z,69.38
2022-12-31T15:05:57.770Z,67.72
2022-12-31T15:08:24.356Z,68.91
2022-12-31T15:10:50.955Z,70.13
2022-12-31T15:13:18.551Z,70.53
2022-12-31T15:15:45.142Z,70.12
2022-12-31T15:18:11.585Z,70.42
2022-12-31T15:20:38.157Z,71.82
2022-12-31T15:23:04.550Z,70.52
2022-12-31T15:25:40.504Z,69.37
2022-12-31T15:28:09.168Z,71.11
2022-12-31T15:30:35.809Z,71.47
2022-12-31T15:33:02.424Z,70.82
2022-12-31T15:35:31.304Z,70.79
2022-12-31T15:37:57.755Z,71.32
2022-12-31T15:40:24.189Z,71.24
2022-12-31T15:42:50.672Z,71.32
2022-12-31T15:45:17.119Z,71.95
2022-12-31T15:50:25.601Z,71.94
2022-12-31T15:52:53.181Z,70.58
2022-12-31T15:55:20.783Z,71.39
2022-12-31T15:57:48.351Z,71.61
2022-12-31T16:00:17.016Z,71.61
2022-12-31T16:02:45.702Z,71.72
2022-12-31T16:07:53.803Z,71.41
2022-12-31T16:10:21.402Z,72.26
2022-12-31T16:12:50.079Z,72.55
2022-12-31T16:15:18.628Z,71.35
2022-12-31T16:17:46.208Z,73.72
2022-12-31T16:20:12.842Z,72.89
2022-12-31T16:22:40.424Z,72.65
2022-12-31T16:27:53.674Z,73.43
2022-12-31T16:30:21.254Z,71.86
2022-12-31T16:32:48.281Z,73.33
2022-12-31T16:35:21.631Z,73.61
2022-12-31T16:37:50.108Z,71.92
2022-12-31T16:40:16.670Z,72.03
2022-12-31T16:42:44.633Z,73.07
2022-12-31T16:45:11.173Z,72.56
2022-12-31T16:47:37.597Z,72.55
2022-12-31T16:50:05.046Z,71.83
2022-12-31T16:52:31.856Z,73.27
2022-12-31T16:54:59.218Z,71.24
2022-12-31T16:57:25.657Z,72.22
2022-12-31T16:59:53.447Z,72.55
2022-12-31T17:02:20.083Z,71.73
2022-12-31T17:04:53.705Z,71.68
2022-12-31T17:07:22.278Z,71.86
2022-12-31T17:09:48.870Z,72.31
2022-12-31T17:12:15.336Z,72.40
2022-12-31T17:14:42.060Z,72.88
2022-12-31T17:17:08.648Z,71.70
2022-12-31T17:19:35.252Z,71.97
2022-12-31T17:22:01.782Z,71.20
2022-12-31T17:24:28.464Z,73.58
2022-12-31T17:26:55.053Z,73.46
2022-12-31T17:29:26.308Z,71.91
2022-12-31T17:31:53.102Z,71.82
2022-12-31T17:34:19.572Z,72.00
2022-12-31T17:36:46.435Z,71.67
2022-12-31T17:39:12.905Z,72.28
2022-12-31T17:41:39.349Z,72.13
2022-12-31T17:44:05.786Z,72.84
2022-12-31T17:46:32.256Z,72.51
2022-12-31T17:48:58.708Z,71.01
2022-12-31T17:51:26.055Z,71.82
2022-12-31T17:53:53.661Z,71.30
2022-12-31T17:56:21.236Z,71.46
2022-12-31T17:58:47.657Z,70.94
2022-12-31T18:01:14.532Z,71.86
2022-12-31T18:03:41.173Z,70.36
2022-12-31T18:06:12.917Z,71.94
2022-12-31T18:08:42.643Z,71.95
2022-12-31T18:11:10.812Z,72.21
2022-12-31T18:13:37.242Z,72.43
2022-12-31T18:16:03.711Z,72.45
2022-12-31T18:18:30.159Z,71.43
2022-12-31T18:20:56.570Z,72.21
2022-12-31T18:23:22.999Z,72.06
2022-12-31T18:25:49.668Z,70.94
2022-12-31T18:28:16.112Z,71.95
2022-12-31T18:30:42.557Z,72.27
2022-12-31T18:33:09.039Z,71.82
2022-12-31T18:38:21.904Z,72.27
2022-12-31T18:40:48.458Z,71.54
2022-12-31T18:43:14.906Z,72.53
2022-12-31T18:45:41.350Z,73.20
2022-12-31T18:48:07.797Z,72.67
2022-12-31T18:50:35.371Z,72.03
2022-12-31T18:53:02.972Z,71.46
2022-12-31T18:55:29.575Z,72.32
2022-12-31T18:57:56.028Z,73.12
2022-12-31T19:00:22.468Z,72.47
2022-12-31T19:02:48.919Z,72.17
2022-12-31T19:05:15.332Z,72.53
2022-12-31T19:07:41.753Z,71.56
2022-12-31T19:10:08.292Z,72.09
2022-12-31T19:12:34.735Z,72.24
2022-12-31T19:15:01.155Z,72.00
2022-12-31T19:17:27.576Z,71.91
2022-12-31T19:19:54.018Z,72.22
2022-12-31T19:22:20.422Z,73.03
2022-12-31T19:24:46.846Z,72.74
2022-12-31T19:27:13.281Z,72.67
2022-12-31T19:29:39.719Z,72.49
2022-12-31T19:32:06.442Z,72.50
2022-12-31T19:34:34.017Z,72.60
2022-12-31T19:37:00.623Z,72.21
2022-12-31T19:39:27.074Z,72.76
2022-12-31T19:41:58.844Z,72.55
2022-12-31T19:44:25.661Z,73.67
2022-12-31T19:46:52.061Z,73.08
2022-12-31T19:49:18.600Z,73.60
2022-12-31T19:51:45.011Z,72.06
2022-12-31T19:54:11.426Z,72.68
2022-12-31T19:56:37.848Z,72.00
2022-12-31T19:59:04.254Z,72.30
2022-12-31T20:01:30.730Z,72.31
2022-12-31T20:03:57.247Z,72.92
2022-12-31T20:06:23.689Z,73.04
2022-12-31T20:08:50.108Z,72.16
2022-12-31T20:11:16.521Z,72.18
2022-12-31T20:13:42.980Z,73.44
2022-12-31T20:16:09.481Z,73.73
2022-12-31T20:18:35.907Z,72.83
2022-12-31T20:21:02.434Z,73.69
2022-12-31T20:23:28.902Z,72.70
2022-12-31T20:25:55.347Z,71.82
2022-12-31T20:28:21.803Z,73.44
2022-12-31T20:30:48.305Z,73.12
2022-12-31T20:33:19.073Z,73.26
2022-12-31T20:35:45.811Z,73.33
2022-12-31T20:38:12.238Z,72.75
2022-12-31T20:40:44.608Z,72.37
2022-12-31T20:43:13.001Z,73.31
2022-12-31T20:45:39.404Z,72.64
2022-12-31T20:48:05.815Z,71.84
2022-12-31T20:50:32.227Z,72.86
2022-12-31T20:52:58.636Z,72.53
2022-12-31T20:55:25.067Z,72.80
2022-12-31T20:57:51.473Z,72.89
2022-12-31T21:00:17.890Z,72.78
2022-12-31T21:02:47.836Z,72.97
2022-12-31T21:05:18.197Z,72.95
2022-12-31T21:07:44.740Z,72.97
2022-12-31T21:10:11.182Z,72.91
2022-12-31T21:12:37.599Z,73.07
2022-12-31T21:15:04.004Z,73.23
2022-12-31T21:17:30.435Z,73.81
2022-12-31T21:19:56.857Z,73.33
2022-12-31T21:22:23.272Z,73.68
2022-12-31T21:24:49.688Z,72.86
2022-12-31T21:27:16.102Z,72.93
2022-12-31T21:30:16.406Z,72.99
2022-12-31T21:32:28.883Z,73.08
2022-12-31T21:35:31.166Z,73.55
2022-12-31T21:37:59.198Z,74.00
2022-12-31T21:40:26.908Z,73.38
2022-12-31T21:42:53.332Z,73.24
2022-12-31T21:45:19.748Z,73.52
2022-12-31T21:47:47.794Z,73.44
2022-12-31T21:50:14.367Z,73.22
2022-12-31T21:52:40.796Z,73.12
2022-12-31T21:55:07.234Z,73.69
2022-12-31T21:57:51.995Z,73.94
2022-12-31T22:00:42.374Z,73.18
2022-12-31T22:03:06.558Z,73.22
2022-12-31T22:05:33.059Z,73.19
2022-12-31T22:07:59.504Z,74.20
2022-12-31T22:10:25.953Z,73.11
2022-12-31T22:12:52.471Z,72.99
2022-12-31T22:15:18.903Z,73.20
2022-12-31T22:17:45.378Z,73.40
2022-12-31T22:20:28.114Z,72.68
2022-12-31T22:22:55.195Z,73.63
2022-12-31T22:25:21.703Z,72.79
2022-12-31T22:28:04.456Z,73.28
2022-12-31T22:30:34.545Z,73.39
2022-12-31T22:33:00.977Z,72.74
2022-12-31T22:35:27.392Z,73.36
2022-12-31T22:37:57.552Z,72.50
2022-12-31T22:40:25.549Z,72.55
2022-12-31T22:42:51.957Z,72.86
2022-12-31T22:45:18.465Z,73.10
2022-12-31T22:47:44.874Z,72.46
2022-12-31T22:50:11.300Z,72.08
2022-12-31T22:52:37.762Z,71.81
2022-12-31T22:55:04.176Z,71.80
2022-12-31T22:57:30.585Z,72.27
2022-12-31T22:59:57.029Z,72.42
2022-12-31T23:02:23.528Z,71.83
2022-12-31T23:04:49.955Z,71.92
2022-12-31T23:07:16.467Z,71.53
2022-12-31T23:09:42.901Z,71.51
2022-12-31T23:12:09.321Z,71.46
2022-12-31T23:14:35.770Z,71.45
2022-12-31T23:17:30.351Z,71.02
2022-12-31T23:19:48.607Z,71.56
2022-12-31T23:22:15.038Z,71.65
2022-12-31T23:24:41.460Z,71.50
2022-12-31T23:27:07.914Z,71.72
2022-12-31T23:29:34.335Z,72.07
2022-12-31T23:32:00.775Z,71.44
2022-12-31T23:34:27.241Z,72.17
2022-12-31T23:36:53.677Z,71.69
2022-12-31T23:39:20.216Z,71.75
2022-12-31T23:41:46.637Z,72.45
2022-12-31T23:44:13.027Z,72.49
2022-12-31T23:46:39.609Z,71.95
2022-12-31T23:49:06.071Z,73.06
2022-12-31T23:51:32.489Z,72.71
2022-12-31T23:53:58.901Z,72.29
2022-12-31T23:56:25.294Z,72.44
2022-12-31T23:58:51.721Z,72.94
